createdAt,value
2018-11-05T00:02:00.152Z,101418.02
2018-11-05T00:04:28.228Z,101426.09
2018-11-05T00:06:56.292Z,101421.19
2018-11-05T00:09:24.368Z,101417.30
2018-11-05T00:11:52.440Z,101422.77
2018-11-05T00:14:21.092Z,101427.41
2018-11-05T00:16:50.278Z,101419.30
2018-11-05T00:19:19.580Z,101413.10
2018-11-05T00:21:47.768Z,101415.08
2018-11-05T00:24:15.836Z,101412.94
2018-11-05T00:26:44.261Z,101409.05
2018-11-05T00:29:12.322Z,101406.03
2018-11-05T00:31:40.476Z,101404.08
2018-11-05T00:34:08.660Z,101397.98
2018-11-05T00:36:36.718Z,101403.27
2018-11-05T00:39:07.479Z,101402.14
2018-11-05T00:41:35.860Z,101403.27
2018-11-05T00:44:03.945Z,101408.56
2018-11-05T00:46:31.995Z,101398.22
2018-11-05T00:49:00.076Z,101396.44
2018-11-05T00:51:28.137Z,101394.72
2018-11-05T00:53:56.240Z,101391.06
2018-11-05T00:56:25.100Z,101385.22
2018-11-05T00:58:53.165Z,101388.55
2018-11-05T01:01:21.261Z,101384.97
2018-11-05T01:03:49.361Z,101383.42
2018-11-05T01:06:19.571Z,101387.57
2018-11-05T01:08:47.702Z,101384.05
2018-11-05T01:11:15.769Z,101382.44
2018-11-05T01:13:43.840Z,101379.67
2018-11-05T01:16:11.902Z,101380.80
2018-11-05T01:18:39.979Z,101382.77
2018-11-05T01:21:08.124Z,101378.63
2018-11-05T01:23:36.192Z,101384.16
2018-11-05T01:26:04.332Z,101379.27
2018-11-05T01:28:32.400Z,101377.81
2018-11-05T01:31:00.472Z,101373.08
2018-11-05T01:33:28.544Z,101372.35
2018-11-05T01:35:56.608Z,101371.53
2018-11-05T01:38:24.668Z,101366.56
2018-11-05T01:40:52.736Z,101360.47
2018-11-05T01:43:20.844Z,101363.56
2018-11-05T01:45:48.959Z,101358.36
2018-11-05T01:48:17.016Z,101355.11
2018-11-05T01:50:45.087Z,101354.62
2018-11-05T01:53:13.144Z,101351.06
2018-11-05T01:55:41.216Z,101343.55
2018-11-05T01:58:09.313Z,101329.38
2018-11-05T02:00:37.392Z,101343.70
2018-11-05T02:03:05.570Z,101346.63
2018-11-05T02:05:33.644Z,101343.45
2018-11-05T02:08:01.717Z,101340.36
2018-11-05T02:10:29.876Z,101341.11
2018-11-05T02:12:57.862Z,101331.98
2018-11-05T02:15:25.932Z,101333.36
2018-11-05T02:17:54.005Z,101335.80
2018-11-05T02:20:22.086Z,101327.98
2018-11-05T02:22:50.139Z,101331.83
2018-11-05T02:25:18.213Z,101325.41
2018-11-05T02:27:46.277Z,101330.45
2018-11-05T02:30:16.372Z,101321.96
2018-11-05T02:32:44.644Z,101318.41
2018-11-05T02:35:13.536Z,101315.53
2018-11-05T02:37:42.420Z,101317.17
2018-11-05T02:40:12.739Z,101319.69
2018-11-05T02:42:41.526Z,101325.33
2018-11-05T02:45:10.931Z,101321.96
2018-11-05T02:47:38.998Z,101320.84
2018-11-05T02:50:08.299Z,101313.17
2018-11-05T02:52:36.488Z,101306.03
2018-11-05T02:55:04.742Z,101309.62
2018-11-05T02:57:32.846Z,101308.23
2018-11-05T03:00:00.922Z,101299.11
2018-11-05T03:02:29.045Z,101303.41
2018-11-05T03:04:57.119Z,101305.61
2018-11-05T03:07:25.209Z,101304.98
2018-11-05T03:09:53.380Z,101301.72
2018-11-05T03:12:21.431Z,101301.05
2018-11-05T03:14:49.503Z,101293.73
2018-11-05T03:17:17.613Z,101290.73
2018-11-05T03:19:45.660Z,101289.76
2018-11-05T03:22:13.736Z,101280.08
2018-11-05T03:24:41.860Z,101282.02
2018-11-05T03:27:09.935Z,101285.20
2018-11-05T03:29:38.014Z,101281.84
2018-11-05T03:32:06.402Z,101271.36
2018-11-05T03:34:34.416Z,101275.33
2018-11-05T03:37:02.495Z,101276.82
2018-11-05T03:39:30.533Z,101281.05
2018-11-05T03:41:58.616Z,101277.72
2018-11-05T03:44:26.693Z,101276.34
2018-11-05T03:46:54.756Z,101274.77
2018-11-05T03:49:22.824Z,101267.63
2018-11-05T03:51:50.888Z,101267.14
2018-11-05T03:54:18.948Z,101277.87
2018-11-05T03:56:47.095Z,101278.92
2018-11-05T03:59:15.089Z,101278.28
2018-11-05T04:01:43.188Z,101284.37
2018-11-05T04:04:11.252Z,101276.48
2018-11-05T04:06:39.362Z,101272.11
2018-11-05T04:09:09.025Z,101274.20
2018-11-05T04:11:37.104Z,101262.58
2018-11-05T04:14:05.172Z,101260.86
2018-11-05T04:16:33.521Z,101258.17
2018-11-05T04:19:01.587Z,101260.22
2018-11-05T04:21:34.748Z,101252.48
2018-11-05T04:24:02.828Z,101252.64
2018-11-05T04:26:30.916Z,101252.56
2018-11-05T04:28:58.981Z,101258.58
2018-11-05T04:31:27.036Z,101256.07
2018-11-05T04:33:55.109Z,101255.81
2018-11-05T04:36:23.201Z,101262.98
2018-11-05T04:38:51.255Z,101259.66
2018-11-05T04:41:19.325Z,101253.80
2018-11-05T04:43:47.436Z,101248.72
2018-11-05T04:46:15.480Z,101250.77
2018-11-05T04:48:43.552Z,101250.43
2018-11-05T04:51:11.656Z,101243.74
2018-11-05T04:53:39.704Z,101248.15
2018-11-05T04:56:07.975Z,101243.95
2018-11-05T04:58:36.079Z,101250.05
2018-11-05T05:01:04.181Z,101230.91
2018-11-05T05:03:32.281Z,101236.94
2018-11-05T05:06:00.344Z,101232.55
2018-11-05T05:08:28.401Z,101232.78
2018-11-05T05:10:56.483Z,101231.73
2018-11-05T05:13:24.555Z,101232.55
2018-11-05T05:15:52.669Z,101231.32
2018-11-05T05:18:20.739Z,101232.63
2018-11-05T05:20:48.812Z,101237.91
2018-11-05T05:23:16.989Z,101234.42
2018-11-05T05:25:45.098Z,101241.57
2018-11-05T05:28:13.270Z,101236.22
2018-11-05T05:30:41.348Z,101226.20
2018-11-05T05:33:09.461Z,101220.74
2018-11-05T05:35:37.495Z,101215.13
2018-11-05T05:38:05.833Z,101225.05
2018-11-05T05:40:33.969Z,101224.56
2018-11-05T05:43:02.037Z,101224.81
2018-11-05T05:45:30.178Z,101222.76
2018-11-05T05:47:58.257Z,101224.63
2018-11-05T05:50:26.329Z,101222.12
2018-11-05T05:52:54.416Z,101221.55
2018-11-05T05:55:22.492Z,101225.59
2018-11-05T05:57:50.660Z,101223.31
2018-11-05T06:00:19.016Z,101222.04
2018-11-05T06:02:47.103Z,101218.67
2018-11-05T06:05:15.656Z,101219.27
2018-11-05T06:07:44.140Z,101217.41
2018-11-05T06:10:13.328Z,101218.19
2018-11-05T06:12:41.417Z,101218.94
2018-11-05T06:15:11.417Z,101226.00
2018-11-05T06:17:39.520Z,101223.72
2018-11-05T06:20:10.219Z,101217.22
2018-11-05T06:22:38.304Z,101215.34
2018-11-05T06:25:07.197Z,101216.39
2018-11-05T06:27:35.336Z,101222.75
2018-11-05T06:30:03.820Z,101224.21
2018-11-05T06:32:31.945Z,101221.22
2018-11-05T06:35:00.015Z,101225.37
2018-11-05T06:37:28.080Z,101225.29
2018-11-05T06:39:56.159Z,101230.97
2018-11-05T06:42:24.237Z,101226.48
2018-11-05T06:44:52.358Z,101228.43
2018-11-05T06:47:20.435Z,101230.97
2018-11-05T06:49:48.596Z,101229.59
2018-11-05T06:52:16.620Z,101230.08
2018-11-05T06:54:44.725Z,101230.89
2018-11-05T06:57:12.811Z,101234.45
2018-11-05T06:59:40.880Z,101229.40
2018-11-05T07:02:08.952Z,101232.77
2018-11-05T07:04:37.113Z,101233.47
2018-11-05T07:07:05.777Z,101230.14
2018-11-05T07:09:33.865Z,101231.19
2018-11-05T07:12:01.989Z,101231.19
2018-11-05T07:14:30.077Z,101233.87
2018-11-05T07:16:58.174Z,101231.67
2018-11-05T07:19:26.324Z,101232.16
2018-11-05T07:21:54.344Z,101233.45
2018-11-05T07:24:22.469Z,101242.89
2018-11-05T07:26:50.563Z,101238.17
2018-11-05T07:29:18.624Z,101235.74
2018-11-05T07:31:46.726Z,101229.87
2018-11-05T07:34:15.040Z,101235.41
2018-11-05T07:36:43.092Z,101232.55
2018-11-05T07:39:12.382Z,101226.83
2018-11-05T07:41:40.630Z,101223.63
2018-11-05T07:44:09.112Z,101227.22
2018-11-05T07:46:37.219Z,101224.38
2018-11-05T07:49:05.293Z,101217.37
2018-11-05T07:51:33.496Z,101216.20
2018-11-05T07:54:01.577Z,101211.23
2018-11-05T07:56:29.655Z,101217.25
2018-11-05T07:58:57.766Z,101218.33
2018-11-05T08:01:25.868Z,101205.61
2018-11-05T08:03:53.989Z,101211.06
2018-11-05T08:06:22.496Z,101200.47
2018-11-05T08:08:50.579Z,101208.44
2018-11-05T08:11:18.697Z,101216.66
2018-11-05T08:13:46.775Z,101214.55
2018-11-05T08:16:14.930Z,101217.56
2018-11-05T08:18:43.374Z,101216.32
2018-11-05T08:21:11.456Z,101218.23
2018-11-05T08:23:39.536Z,101220.67
2018-11-05T08:26:07.623Z,101212.62
2018-11-05T08:28:35.721Z,101216.69
2018-11-05T08:31:03.847Z,101223.49
2018-11-05T08:33:31.924Z,101223.84
2018-11-05T08:36:00.011Z,101217.64
2018-11-05T08:38:28.069Z,101218.91
2018-11-05T08:40:56.184Z,101209.95
2018-11-05T08:43:24.257Z,101197.70
2018-11-05T08:45:52.564Z,101203.50
2018-11-05T08:48:20.884Z,101201.86
2018-11-05T08:50:49.078Z,101203.98
2018-11-05T08:53:17.044Z,101199.82
2018-11-05T08:55:45.131Z,101194.76
2018-11-05T08:58:13.204Z,101195.23
2018-11-05T09:00:46.769Z,101190.17
2018-11-05T09:03:14.815Z,101189.83
2018-11-05T09:05:42.892Z,101182.08
2018-11-05T09:08:10.948Z,101185.33
2018-11-05T09:10:39.206Z,101179.95
2018-11-05T09:13:07.141Z,101184.23
2018-11-05T09:15:35.217Z,101179.08
2018-11-05T09:18:03.383Z,101179.21
2018-11-05T09:20:31.439Z,101182.94
2018-11-05T09:22:59.501Z,101174.61
2018-11-05T09:25:27.576Z,101169.80
2018-11-05T09:27:55.716Z,101174.66
2018-11-05T09:30:24.635Z,101169.36
2018-11-05T09:32:52.887Z,101170.62
2018-11-05T09:35:20.960Z,101163.06
2018-11-05T09:37:49.034Z,101168.27
2018-11-05T09:40:19.391Z,101164.10
2018-11-05T09:42:47.981Z,101165.55
2018-11-05T09:45:22.052Z,101166.31
2018-11-05T09:47:50.119Z,101167.44
2018-11-05T09:50:18.970Z,101165.84
2018-11-05T09:52:47.025Z,101167.44
2018-11-05T09:55:15.569Z,101167.22
2018-11-05T09:57:43.654Z,101170.81
2018-11-05T10:00:18.506Z,101169.91
2018-11-05T10:02:52.207Z,101163.66
2018-11-05T10:05:20.362Z,101153.30
2018-11-05T10:07:48.296Z,101157.02
2018-11-05T10:10:17.178Z,101157.14
2018-11-05T10:12:45.377Z,101155.19
2018-11-05T10:15:14.789Z,101155.78
2018-11-05T10:17:42.940Z,101150.61
2018-11-05T10:20:21.804Z,101150.85
2018-11-05T10:22:49.864Z,101150.85
2018-11-05T10:25:18.187Z,101158.51
2018-11-05T10:27:46.508Z,101152.14
2018-11-05T10:30:16.935Z,101141.73
2018-11-05T10:32:45.097Z,101145.80
2018-11-05T10:35:14.064Z,101145.23
2018-11-05T10:37:42.144Z,101146.05
2018-11-05T10:40:12.534Z,101144.88
2018-11-05T10:42:40.856Z,101147.66
2018-11-05T10:45:10.239Z,101152.63
2018-11-05T10:47:38.832Z,101152.28
2018-11-05T10:50:07.536Z,101147.45
2018-11-05T10:52:35.900Z,101142.94
2018-11-05T10:55:04.012Z,101132.31
2018-11-05T10:57:32.086Z,101129.53
2018-11-05T11:00:00.165Z,101133.45
2018-11-05T11:02:33.697Z,101139.00
2018-11-05T11:05:01.771Z,101139.82
2018-11-05T11:07:29.846Z,101136.22
2018-11-05T11:09:57.924Z,101133.58
2018-11-05T11:12:26.011Z,101127.66
2018-11-05T11:14:54.063Z,101120.36
2018-11-05T11:17:22.136Z,101121.27
2018-11-05T11:19:50.189Z,101112.38
2018-11-05T11:22:18.276Z,101113.42
2018-11-05T11:24:46.349Z,101108.91
2018-11-05T11:27:14.432Z,101097.24
2018-11-05T11:29:42.517Z,101102.11
2018-11-05T11:32:10.588Z,101096.88
2018-11-05T11:34:38.653Z,101094.92
2018-11-05T11:37:06.822Z,101092.61
2018-11-05T11:39:34.865Z,101090.31
2018-11-05T11:42:03.017Z,101086.52
2018-11-05T11:44:31.031Z,101095.30
2018-11-05T11:46:59.084Z,101088.37
2018-11-05T11:49:27.160Z,101082.47
2018-11-05T11:51:55.234Z,101091.96
2018-11-05T11:54:23.336Z,101086.16
2018-11-05T11:56:51.457Z,101084.42
2018-11-05T11:59:19.575Z,101071.94
2018-11-05T12:01:53.214Z,101073.00
2018-11-05T12:04:21.481Z,101071.48
2018-11-05T12:06:49.622Z,101067.92
2018-11-05T12:09:17.700Z,101063.05
2018-11-05T12:11:45.782Z,101065.83
2018-11-05T12:14:13.962Z,101056.47
2018-11-05T12:16:42.325Z,101055.75
2018-11-05T12:19:10.437Z,101047.11
2018-11-05T12:21:38.523Z,101039.35
2018-11-05T12:24:06.868Z,101030.11
2018-11-05T12:26:35.611Z,101020.51
2018-11-05T12:29:04.062Z,101020.97
2018-11-05T12:31:32.376Z,101014.50
2018-11-05T12:34:00.473Z,101015.67
2018-11-05T12:36:28.541Z,101014.14
2018-11-05T12:38:56.730Z,101014.75
2018-11-05T12:41:25.034Z,101009.41
2018-11-05T12:43:53.147Z,101005.49
2018-11-05T12:46:21.235Z,101005.25
2018-11-05T12:48:49.307Z,101006.63
2018-11-05T12:51:17.436Z,100999.47
2018-11-05T12:53:45.556Z,100996.23
2018-11-05T12:56:13.877Z,100995.17
2018-11-05T12:58:41.958Z,100994.14
2018-11-05T13:01:10.093Z,100993.92
2018-11-05T13:03:38.184Z,100988.83
2018-11-05T13:06:06.228Z,100986.27
2018-11-05T13:08:34.489Z,100982.36
2018-11-05T13:11:02.596Z,100983.28
2018-11-05T13:13:30.660Z,100987.77
2018-11-05T13:15:58.715Z,100983.05
2018-11-05T13:18:26.840Z,100992.76
2018-11-05T13:20:54.918Z,101000.27
2018-11-05T13:23:28.307Z,101005.49
2018-11-05T13:25:56.380Z,101003.64
2018-11-05T13:28:24.574Z,101009.41
2018-11-05T13:30:52.569Z,101003.86
2018-11-05T13:33:20.642Z,100992.76
2018-11-05T13:35:48.701Z,100996.34
2018-11-05T13:38:17.363Z,101001.80
2018-11-05T13:40:44.819Z,100995.53
2018-11-05T13:43:12.891Z,100996.92
2018-11-05T13:45:41.406Z,100994.50
2018-11-05T13:48:09.284Z,100997.48
2018-11-05T13:50:37.099Z,100991.16
2018-11-05T13:53:05.212Z,100987.77
2018-11-05T13:55:33.276Z,100983.05
2018-11-05T13:58:01.357Z,100982.36
2018-11-05T14:00:29.436Z,100982.12
2018-11-05T14:02:57.544Z,100978.77
2018-11-05T14:05:25.609Z,100977.73
2018-11-05T14:07:53.684Z,100978.66
2018-11-05T14:10:21.898Z,100978.31
2018-11-05T14:12:50.569Z,100970.34
2018-11-05T14:15:18.589Z,100971.48
2018-11-05T14:17:46.895Z,100970.55
2018-11-05T14:20:16.003Z,100973.11
2018-11-05T14:22:44.132Z,100967.31
2018-11-05T14:25:14.439Z,100957.25
2018-11-05T14:27:43.723Z,100958.98
2018-11-05T14:30:12.638Z,100962.94
2018-11-05T14:32:41.753Z,100960.27
2018-11-05T14:35:09.841Z,100956.33
2018-11-05T14:37:38.025Z,100949.74
2018-11-05T14:40:07.106Z,100955.54
2018-11-05T14:42:35.249Z,100950.09
2018-11-05T14:45:03.316Z,100943.73
2018-11-05T14:47:31.384Z,100947.67
2018-11-05T14:49:59.448Z,100940.28
2018-11-05T14:52:27.554Z,100946.40
2018-11-05T14:54:55.658Z,100942.59
2018-11-05T14:57:23.753Z,100951.23
2018-11-05T14:59:51.773Z,100954.61
2018-11-05T15:02:25.432Z,100954.26
2018-11-05T15:04:53.541Z,100953.44
2018-11-05T15:09:56.057Z,100955.63
2018-11-05T15:12:24.120Z,100959.42
2018-11-05T15:14:52.191Z,100964.47
2018-11-05T15:17:20.253Z,100962.63
2018-11-05T15:19:48.678Z,100963.77
2018-11-05T15:22:16.392Z,100958.42
2018-11-05T15:24:44.460Z,100946.08
2018-11-05T15:27:12.521Z,100939.00
2018-11-05T15:29:40.749Z,100930.80
2018-11-05T15:32:09.957Z,100934.89
2018-11-05T15:34:38.072Z,100936.09
2018-11-05T15:37:06.161Z,100935.63
2018-11-05T15:39:34.337Z,100937.49
2018-11-05T15:42:02.481Z,100934.02
2018-11-05T15:44:30.626Z,100929.28
2018-11-05T15:46:58.797Z,100927.33
2018-11-05T15:49:26.882Z,100925.94
2018-11-05T15:51:55.209Z,100941.41
2018-11-05T15:54:23.199Z,100935.41
2018-11-05T15:56:51.177Z,100925.70
2018-11-05T15:59:19.254Z,100926.52
2018-11-05T16:01:47.413Z,100934.84
2018-11-05T16:04:16.008Z,100947.53
2018-11-05T16:06:44.823Z,100946.75
2018-11-05T16:09:13.064Z,100941.31
2018-11-05T16:11:41.529Z,100934.48
2018-11-05T16:14:10.782Z,100927.55
2018-11-05T16:16:38.886Z,100930.31
2018-11-05T16:19:07.448Z,100934.73
2018-11-05T16:21:35.595Z,100935.66
2018-11-05T16:24:03.664Z,100944.54
2018-11-05T16:26:31.901Z,100939.10
2018-11-05T16:29:00.044Z,100936.89
2018-11-05T16:31:28.140Z,100935.30
2018-11-05T16:33:56.204Z,100937.36
2018-11-05T16:36:24.351Z,100931.23
2018-11-05T16:38:52.439Z,100925.94
2018-11-05T16:41:20.751Z,100924.77
2018-11-05T16:43:48.829Z,100916.09
2018-11-05T16:46:16.910Z,100918.19
2018-11-05T16:48:44.972Z,100927.90
2018-11-05T16:51:13.044Z,100927.33
2018-11-05T16:53:41.141Z,100915.77
2018-11-05T16:56:09.155Z,100915.77
2018-11-05T16:58:37.260Z,100915.17
2018-11-05T17:01:05.937Z,100917.16
2018-11-05T17:03:33.905Z,100915.52
2018-11-05T17:06:02.001Z,100912.29
2018-11-05T17:08:30.284Z,100922.45
2018-11-05T17:10:58.397Z,100921.07
2018-11-05T17:13:26.574Z,100908.84
2018-11-05T17:15:54.551Z,100909.62
2018-11-05T17:18:22.632Z,100912.08
2018-11-05T17:20:50.732Z,100919.22
2018-11-05T17:23:18.803Z,100921.64
2018-11-05T17:25:46.885Z,100910.22
2018-11-05T17:28:15.016Z,100898.88
2018-11-05T17:30:43.103Z,100906.74
2018-11-05T17:33:11.180Z,100910.91
2018-11-05T17:35:39.304Z,100923.03
2018-11-05T17:38:07.385Z,100920.14
2018-11-05T17:40:35.457Z,100917.38
2018-11-05T17:43:03.544Z,100915.98
2018-11-05T17:45:31.620Z,100902.12
2018-11-05T17:47:59.741Z,100900.05
2018-11-05T17:50:27.816Z,100905.00
2018-11-05T17:52:55.889Z,100898.42
2018-11-05T17:55:23.960Z,100891.73
2018-11-05T17:57:52.051Z,100909.30
2018-11-05T18:00:21.347Z,100910.22
2018-11-05T18:02:49.433Z,100901.91
2018-11-05T18:05:17.513Z,100884.20
2018-11-05T18:07:45.712Z,100890.81
2018-11-05T18:10:13.804Z,100897.49
2018-11-05T18:12:41.908Z,100885.02
2018-11-05T18:15:10.949Z,100876.12
2018-11-05T18:17:40.212Z,100866.31
2018-11-05T18:20:09.589Z,100866.98
2018-11-05T18:22:37.732Z,100867.80
2018-11-05T18:25:06.846Z,100860.52
2018-11-05T18:27:34.955Z,100854.29
2018-11-05T18:30:03.038Z,100861.69
2018-11-05T18:32:31.124Z,100850.23
2018-11-05T18:34:59.276Z,100846.19
2018-11-05T18:37:27.396Z,100850.70
2018-11-05T18:39:55.488Z,100842.14
2018-11-05T18:42:23.550Z,100839.97
2018-11-05T18:44:57.501Z,100833.96
2018-11-05T18:47:25.612Z,100834.85
2018-11-05T18:49:53.711Z,100830.69
2018-11-05T18:52:21.785Z,100846.86
2018-11-05T18:54:49.967Z,100833.67
2018-11-05T18:57:18.118Z,100822.70
2018-11-05T18:59:46.221Z,100820.06
2018-11-05T19:02:19.801Z,100833.67
2018-11-05T19:04:49.066Z,100837.02
2018-11-05T19:07:17.182Z,100826.63
2018-11-05T19:09:45.273Z,100815.88
2018-11-05T19:12:13.340Z,100813.34
2018-11-05T19:14:41.416Z,100820.63
2018-11-05T19:17:09.487Z,100814.16
2018-11-05T19:19:37.669Z,100818.06
2018-11-05T19:22:06.078Z,100811.03
2018-11-05T19:24:34.812Z,100805.59
2018-11-05T19:27:02.634Z,100803.17
2018-11-05T19:29:30.708Z,100802.25
2018-11-05T19:31:58.812Z,100793.82
2018-11-05T19:34:26.936Z,100793.36
2018-11-05T19:36:55.028Z,100783.98
2018-11-05T19:39:23.095Z,100780.53
2018-11-05T19:41:51.197Z,100777.52
2018-11-05T19:44:19.241Z,100780.07
2018-11-05T19:46:47.340Z,100781.56
2018-11-05T19:49:15.419Z,100782.27
2018-11-05T19:51:43.539Z,100786.52
2018-11-05T19:54:11.598Z,100787.34
2018-11-05T19:56:39.964Z,100786.88
2018-11-05T19:59:08.089Z,100795.28
2018-11-05T20:01:36.209Z,100791.95
2018-11-05T20:04:04.497Z,100796.31
2018-11-05T20:06:32.586Z,100796.31
2018-11-05T20:09:00.651Z,100796.67
2018-11-05T20:11:28.725Z,100794.37
2018-11-05T20:13:56.786Z,100782.82
2018-11-05T20:16:24.848Z,100788.81
2018-11-05T20:18:52.972Z,100783.02
2018-11-05T20:21:20.989Z,100791.22
2018-11-05T20:23:49.129Z,100798.49
2018-11-05T20:26:17.193Z,100790.41
2018-11-05T20:28:45.419Z,100787.17
2018-11-05T20:31:13.678Z,100785.00
2018-11-05T20:33:41.792Z,100792.70
2018-11-05T20:36:09.729Z,100795.94
2018-11-05T20:38:37.783Z,100795.16
2018-11-05T20:41:05.866Z,100801.73
2018-11-05T20:43:33.931Z,100803.33
2018-11-05T20:46:03.472Z,100792.86
2018-11-05T20:48:31.564Z,100779.92
2018-11-05T20:50:59.623Z,100785.78
2018-11-05T20:53:27.724Z,100790.86
2018-11-05T20:55:55.776Z,100794.69
2018-11-05T20:58:23.837Z,100792.24
2018-11-05T21:00:52.865Z,100783.81
2018-11-05T21:03:20.901Z,100777.45
2018-11-05T21:05:52.858Z,100778.12
2018-11-05T21:08:20.920Z,100780.18
2018-11-05T21:10:49.033Z,100774.53
2018-11-05T21:13:17.113Z,100773.70
2018-11-05T21:15:45.195Z,100776.27
2018-11-05T21:18:13.257Z,100771.64
2018-11-05T21:20:41.327Z,100767.02
2018-11-05T21:23:09.401Z,100769.22
2018-11-05T21:25:37.523Z,100761.58
2018-11-05T21:28:05.905Z,100754.55
2018-11-05T21:30:33.957Z,100750.59
2018-11-05T21:33:02.124Z,100748.27
2018-11-05T21:35:30.123Z,100743.91
2018-11-05T21:37:58.216Z,100754.16
2018-11-05T21:40:26.336Z,100747.34
2018-11-05T21:42:54.408Z,100754.84
2018-11-05T21:45:22.482Z,100752.30
2018-11-05T21:47:50.744Z,100749.53
2018-11-05T21:50:26.340Z,100747.69
2018-11-05T21:52:54.815Z,100751.37
2018-11-05T21:55:31.364Z,100748.57
2018-11-05T21:57:59.426Z,100744.77
2018-11-05T22:00:28.808Z,100747.83
2018-11-05T22:03:01.247Z,100741.83
2018-11-05T22:05:34.243Z,100736.14
2018-11-05T22:08:02.360Z,100732.91
2018-11-05T22:10:32.148Z,100733.34
2018-11-05T22:13:00.204Z,100722.38
2018-11-05T22:15:45.741Z,100727.78
2018-11-05T22:18:14.291Z,100728.80
2018-11-05T22:20:42.368Z,100727.75
2018-11-05T22:23:10.459Z,100715.66
2018-11-05T22:25:38.892Z,100718.98
2018-11-05T22:28:07.105Z,100717.14
2018-11-05T22:30:35.220Z,100713.34
2018-11-05T22:33:11.793Z,100712.05
2018-11-05T22:35:41.248Z,100718.48
2018-11-05T22:38:09.345Z,100714.78
2018-11-05T22:40:38.777Z,100711.20
2018-11-05T22:43:06.856Z,100710.73
2018-11-05T22:45:34.944Z,100708.88
2018-11-05T22:48:03.035Z,100706.33
2018-11-05T22:50:31.201Z,100702.52
2018-11-05T22:52:59.168Z,100704.56
2018-11-05T22:55:27.259Z,100700.86
2018-11-05T22:57:55.455Z,100693.73
2018-11-05T23:00:28.834Z,100692.31
2018-11-05T23:03:02.280Z,100693.88
2018-11-05T23:05:30.393Z,100699.40
2018-11-05T23:07:59.279Z,100687.31
2018-11-05T23:10:27.412Z,100684.51
2018-11-05T23:12:55.568Z,100691.98
2018-11-05T23:15:23.642Z,100700.05
2018-11-05T23:17:52.018Z,100691.75
2018-11-05T23:20:20.076Z,100698.07
2018-11-05T23:22:48.196Z,100695.90
2018-11-05T23:25:16.260Z,100693.80
2018-11-05T23:27:44.321Z,100707.13
2018-11-05T23:30:13.280Z,100703.80
2018-11-05T23:32:41.544Z,100700.22
2018-11-05T23:35:10.445Z,100707.56
2018-11-05T23:37:39.615Z,100704.23
2018-11-05T23:40:08.196Z,100703.33
2018-11-05T23:42:37.306Z,100701.95
2018-11-05T23:45:07.118Z,100690.42
2018-11-05T23:47:35.187Z,100682.01
2018-11-05T23:50:03.300Z,100685.90
2018-11-05T23:52:31.363Z,100682.91
2018-11-05T23:54:59.437Z,100680.94
2018-11-05T23:57:27.490Z,100671.14
2018-11-05T23:59:55.577Z,100682.66
